Time;durP1;ratioP1;P1;durP2;ratioP2;P2;SDS_P1;SDS_P2;PMS_P1;PMS_P2;Temp;Humidity;BMP_temperature;BMP_pressure;BME280_temperature;BME280_humidity;BME280_pressure;Samples;Min_cycle;Max_cycle;Signal;HPM_P1;HPM_P2
2022/12/17 13:06:51;;;;;;;1999.90;999.90;;;14.30;99.90;;;;;;5102287;28;20672;-88
2022/12/17 13:09:17;;;;;;;1999.90;999.90;;;14.30;99.90;;;;;;5089047;28;20039;-87
2022/12/17 13:11:43;;;;;;;1999.90;999.90;;;14.30;99.90;;;;;;5084965;28;20123;-87
2022/12/17 13:14:18;;;;;;;1999.90;999.90;;;14.30;99.90;;;;;;5083915;28;20056;-87
2022/12/17 13:16:46;;;;;;;1999.90;999.90;;;14.30;99.90;;;;;;5102949;28;20088;-87
2022/12/17 13:19:18;;;;;;;1999.90;999.90;;;14.40;99.90;;;;;;5105175;28;20036;-87
2022/12/17 13:21:44;;;;;;;1999.90;999.90;;;14.30;99.90;;;;;;5086254;28;20527;-88
2022/12/17 13:24:11;;;;;;;1999.90;999.90;;;14.30;99.90;;;;;;5090496;28;20048;-88
2022/12/17 13:26:40;;;;;;;1999.90;999.90;;;14.30;99.90;;;;;;5086767;28;20097;-88
2022/12/17 13:29:31;;;;;;;1999.90;999.90;;;14.30;99.90;;;;;;5102759;28;20055;-88
2022/12/17 13:31:59;;;;;;;1999.90;999.90;;;14.30;99.90;;;;;;5082327;28;20089;-88
2022/12/17 13:34:52;;;;;;;1999.90;999.90;;;14.30;99.90;;;;;;5085025;28;20036;-88
2022/12/17 13:37:56;;;;;;;1999.90;999.90;;;14.30;99.90;;;;;;5082162;28;20390;-88
2022/12/17 13:40:32;;;;;;;;;;;14.40;99.90;;;;;;5084903;28;20040;-89
2022/12/17 13:42:58;;;;;;;1999.90;999.90;;;14.30;99.90;;;;;;5080711;28;19916;-88
2022/12/17 13:45:25;;;;;;;1999.90;999.90;;;14.30;99.90;;;;;;5102358;28;20505;-88
2022/12/17 13:47:56;;;;;;;1999.90;999.90;;;14.40;99.90;;;;;;5088219;28;20051;-87
2022/12/17 13:50:26;;;;;;;1999.90;999.90;;;14.40;99.90;;;;;;5100039;28;20398;-88
2022/12/17 13:52:52;;;;;;;1999.90;999.90;;;14.40;99.90;;;;;;5084532;28;20501;-89
2022/12/17 13:55:21;;;;;;;1999.90;999.90;;;14.40;99.90;;;;;;5080319;28;20070;-88
2022/12/17 13:57:48;;;;;;;1999.90;999.90;;;14.40;99.90;;;;;;5088401;28;20051;-87
2022/12/17 14:00:20;;;;;;;1999.90;999.90;;;14.40;99.90;;;;;;5084252;28;20039;-88
2022/12/17 14:02:47;;;;;;;1999.90;999.90;;;14.40;99.90;;;;;;5099322;28;20058;-88
2022/12/17 14:05:29;;;;;;;1999.90;999.90;;;14.40;99.90;;;;;;5096741;28;20071;-88
2022/12/17 14:08:01;;;;;;;1999.90;999.90;;;14.40;99.90;;;;;;5088466;28;20138;-88
2022/12/17 14:10:27;;;;;;;1999.90;999.90;;;14.40;99.90;;;;;;5089487;28;20032;-88
2022/12/17 14:13:09;;;;;;;1999.90;999.90;;;14.40;99.90;;;;;;5086996;28;20032;-88
2022/12/17 14:15:35;;;;;;;1999.90;999.90;;;14.40;99.90;;;;;;5092314;28;20039;-88
2022/12/17 14:18:02;;;;;;;1999.90;999.90;;;14.40;99.90;;;;;;5090559;28;20044;-88
2022/12/17 14:20:30;;;;;;;1999.90;999.90;;;14.40;99.90;;;;;;5088055;28;20051;-87
2022/12/17 14:23:04;;;;;;;1999.90;999.90;;;14.40;99.90;;;;;;5080209;28;20391;-88
2022/12/17 14:25:36;;;;;;;1999.90;999.90;;;14.40;99.90;;;;;;5109817;28;20427;-89
2022/12/17 14:28:18;;;;;;;1999.90;999.90;;;14.40;99.90;;;;;;5088578;28;20036;-87
2022/12/17 14:30:47;;;;;;;1999.90;999.90;;;14.40;99.90;;;;;;5086312;28;20044;-88
2022/12/17 14:33:36;;;;;;;1999.90;999.90;;;14.40;99.90;;;;;;5081553;28;20032;-87
2022/12/17 14:36:22;;;;;;;1999.90;999.90;;;14.40;99.90;;;;;;5103400;28;20047;-88
2022/12/17 14:38:54;;;;;;;1999.90;999.90;;;14.40;99.90;;;;;;5087846;28;20451;-87
2022/12/17 14:44:05;;;;;;;1999.90;999.90;;;14.40;99.90;;;;;;5103738;28;20419;-89
2022/12/17 14:46:33;;;;;;;1999.90;999.90;;;14.40;99.90;;;;;;5108068;28;20031;-89
2022/12/17 14:49:14;;;;;;;1999.90;999.90;;;14.40;99.90;;;;;;5087435;28;20483;-87
2022/12/17 14:51:41;;;;;;;1999.90;999.90;;;14.40;99.90;;;;;;5090721;28;20122;-89
2022/12/17 14:54:24;;;;;;;1999.90;999.90;;;14.30;99.90;;;;;;5095220;28;20036;-88
2022/12/17 14:56:51;;;;;;;1999.90;999.90;;;14.30;99.90;;;;;;5085406;28;20036;-89
2022/12/17 14:59:25;;;;;;;1999.90;999.90;;;14.30;99.90;;;;;;5112244;28;20128;-89
2022/12/17 15:01:54;;;;;;;1999.90;999.90;;;14.30;99.90;;;;;;5093249;28;20043;-90
2022/12/17 15:04:21;;;;;;;1999.90;999.90;;;14.30;99.90;;;;;;5086498;28;20038;-88
2022/12/17 15:06:47;;;;;;;1999.90;999.90;;;14.40;99.90;;;;;;5096810;28;20047;-89
2022/12/17 15:09:13;;;;;;;1999.90;999.90;;;14.30;99.90;;;;;;5091553;28;20043;-91
2022/12/17 15:11:39;;;;;;;1999.90;999.90;;;14.30;99.90;;;;;;5087249;28;20039;-91
2022/12/17 15:14:05;;;;;;;1999.90;999.90;;;14.40;99.90;;;;;;5090334;28;20031;-90
2022/12/17 15:16:31;;;;;;;1999.90;999.90;;;14.30;99.90;;;;;;5110232;28;21345;-91
2022/12/17 15:18:57;;;;;;;1999.90;999.90;;;14.30;99.90;;;;;;5092555;28;20139;-90
2022/12/17 15:21:24;;;;;;;1999.90;999.90;;;14.30;99.90;;;;;;5095129;28;20055;-90
2022/12/17 15:23:50;;;;;;;1999.90;999.90;;;14.30;99.90;;;;;;5092978;28;20035;-90
2022/12/17 15:26:16;;;;;;;1999.90;999.90;;;14.30;99.90;;;;;;5090012;28;20039;-90
2022/12/17 15:28:43;;;;;;;1999.90;999.90;;;14.30;99.90;;;;;;5091919;28;20040;-91
2022/12/17 15:31:11;;;;;;;1999.90;999.90;;;14.30;99.90;;;;;;5095302;28;20035;-90
2022/12/17 15:33:36;;;;;;;1999.90;999.90;;;14.30;99.90;;;;;;5090023;28;20032;-90
2022/12/17 15:36:03;;;;;;;1999.90;999.90;;;14.30;99.90;;;;;;5094912;28;20406;-89
2022/12/17 15:38:28;;;;;;;1999.90;999.90;;;14.30;99.90;;;;;;5109512;28;20478;-89
2022/12/17 15:40:54;;;;;;;1999.90;999.90;;;14.30;99.90;;;;;;5088638;28;20043;-88
2022/12/17 15:43:21;;;;;;;1999.90;999.90;;;14.30;99.90;;;;;;5091348;28;20412;-89
2022/12/17 15:45:49;;;;;;;1999.90;999.90;;;14.30;99.90;;;;;;5088391;28;20040;-88
2022/12/17 15:48:22;;;;;;;1999.90;999.90;;;14.30;99.90;;;;;;5089891;28;20075;-88
2022/12/17 15:50:48;;;;;;;1999.90;999.90;;;14.30;99.90;;;;;;5088564;28;20058;-88
2022/12/17 15:53:14;;;;;;;1999.90;999.90;;;14.30;99.90;;;;;;5088248;28;20035;-88
2022/12/17 15:55:40;;;;;;;1999.90;999.90;;;14.30;99.90;;;;;;5080716;28;20116;-89
2022/12/17 15:58:09;;;;;;;1999.90;999.90;;;14.30;99.90;;;;;;5076646;28;20043;-89
2022/12/17 16:00:35;;;;;;;1999.90;999.90;;;14.30;99.90;;;;;;5082480;28;20071;-89
2022/12/17 16:03:01;;;;;;;1999.90;999.90;;;14.30;99.90;;;;;;5083091;28;20071;-89
2022/12/17 16:05:27;;;;;;;1999.90;999.90;;;14.30;99.90;;;;;;5077270;28;20043;-89
2022/12/17 16:07:53;;;;;;;1999.90;999.90;;;14.30;99.90;;;;;;5079786;28;20054;-89
2022/12/17 16:10:18;;;;;;;1999.90;999.90;;;14.30;99.90;;;;;;5078670;28;20426;-89
2022/12/17 16:12:47;;;;;;;1999.90;999.90;;;14.30;99.90;;;;;;5081148;28;20139;-89
2022/12/17 16:15:13;;;;;;;1999.90;999.90;;;14.30;99.90;;;;;;5082439;28;20058;-88
2022/12/17 16:17:39;;;;;;;1999.90;999.90;;;14.30;99.90;;;;;;5078338;28;20044;-90
2022/12/17 16:20:05;;;;;;;1999.90;999.90;;;14.30;99.90;;;;;;5082026;28;20048;-88
2022/12/17 16:22:31;;;;;;;1999.90;999.90;;;14.30;99.90;;;;;;5084102;28;20051;-89
2022/12/17 16:24:56;;;;;;;1999.90;999.90;;;14.30;99.90;;;;;;5089114;28;20043;-90
2022/12/17 16:27:22;;;;;;;1999.90;999.90;;;14.30;99.90;;;;;;5097229;28;20130;-89
2022/12/17 16:29:48;;;;;;;1999.90;999.90;;;14.30;99.90;;;;;;5106440;28;20039;-90
2022/12/17 16:32:15;;;;;;;1999.90;999.90;;;14.30;99.90;;;;;;5098808;28;20043;-89
2022/12/17 16:34:40;;;;;;;1999.90;999.90;;;14.20;99.90;;;;;;5105798;28;20111;-90
2022/12/17 16:37:06;;;;;;;1999.90;999.90;;;14.20;99.90;;;;;;5102359;28;20092;-89
2022/12/17 16:39:32;;;;;;;1999.90;999.90;;;14.30;99.90;;;;;;5118703;28;20055;-90
2022/12/17 16:41:58;;;;;;;1999.90;999.90;;;14.20;99.90;;;;;;5100102;28;20046;-91
2022/12/17 16:44:23;;;;;;;1999.90;999.90;;;14.30;99.90;;;;;;5115926;28;20028;-91
2022/12/17 16:46:50;;;;;;;1999.90;999.90;;;14.30;99.90;;;;;;5096573;28;20073;-89
2022/12/17 16:49:22;;;;;;;1999.90;999.90;;;14.30;99.90;;;;;;5119440;28;20044;-89
2022/12/17 16:51:52;;;;;;;1999.90;999.90;;;14.30;99.90;;;;;;5101537;28;20063;-90
2022/12/17 16:54:24;;;;;;;1999.90;999.90;;;14.20;99.90;;;;;;5108192;28;20058;-90
2022/12/17 16:56:50;;;;;;;;;;;14.20;99.90;;;;;;5092413;28;20510;-90
2022/12/17 16:59:17;;;;;;;1999.90;999.90;;;14.20;99.90;;;;;;5090508;28;20090;-91
2022/12/17 17:01:47;;;;;;;1999.90;999.90;;;14.20;99.90;;;;;;5080648;28;20142;-90
2022/12/17 17:04:15;;;;;;;1999.90;999.90;;;14.20;99.90;;;;;;5082958;28;20039;-90
2022/12/17 17:06:46;;;;;;;1999.90;999.90;;;14.20;99.90;;;;;;5081494;28;20032;-91
2022/12/17 17:09:12;;;;;;;1999.90;999.90;;;14.20;99.90;;;;;;5085492;28;20495;-91
2022/12/17 17:11:38;;;;;;;1999.90;999.90;;;14.20;99.90;;;;;;5086105;28;20086;-91
2022/12/17 17:14:05;;;;;;;1999.90;999.90;;;14.20;99.90;;;;;;5080159;28;20040;-91
2022/12/17 17:16:33;;;;;;;1999.90;999.90;;;14.20;99.90;;;;;;5083520;28;20032;-91
2022/12/17 17:18:59;;;;;;;1999.90;999.90;;;14.20;99.90;;;;;;5079278;28;20134;-90
2022/12/17 17:21:26;;;;;;;1999.90;999.90;;;14.20;99.90;;;;;;5080198;28;20043;-91
2022/12/17 17:23:56;;;;;;;1999.90;999.90;;;14.20;99.90;;;;;;5081803;28;20048;-90
2022/12/17 17:26:22;;;;;;;1999.90;999.90;;;14.20;99.90;;;;;;5078694;28;20100;-91
2022/12/17 17:28:48;;;;;;;1999.90;999.90;;;14.20;99.90;;;;;;5080850;28;20100;-91
2022/12/17 17:31:15;;;;;;;1999.90;999.90;;;14.10;99.90;;;;;;5086554;28;20421;-90
2022/12/17 17:33:45;;;;;;;1999.90;999.90;;;14.10;99.90;;;;;;5085986;28;20039;-90
2022/12/17 17:36:15;;;;;;;1999.90;999.90;;;14.10;99.90;;;;;;5089302;28;20032;-90
2022/12/17 17:38:41;;;;;;;1999.90;999.90;;;14.10;99.90;;;;;;5087943;28;20039;-91
2022/12/17 17:41:11;;;;;;;1999.90;999.90;;;14.10;99.90;;;;;;5088095;28;20040;-90
2022/12/17 17:43:51;;;;;;;1999.90;999.90;;;14.10;99.90;;;;;;5091230;28;20518;-91
2022/12/17 17:46:18;;;;;;;1999.90;999.90;;;14.10;99.90;;;;;;5086819;28;20541;-91
2022/12/17 17:48:45;;;;;;;1999.90;999.90;;;14.10;99.90;;;;;;5091507;28;20051;-91
2022/12/17 17:51:17;;;;;;;1999.90;999.90;;;14.10;99.90;;;;;;5091706;28;20387;-90
2022/12/17 17:53:43;;;;;;;1999.90;999.90;;;14.10;99.90;;;;;;5083065;28;20055;-91
2022/12/17 17:56:14;;;;;;;1999.90;999.90;;;14.10;99.90;;;;;;5093257;28;20035;-91
2022/12/17 17:58:54;;;;;;;1999.90;999.90;;;14.10;99.90;;;;;;5091525;28;20039;-91
2022/12/17 18:01:23;;;;;;;1999.90;999.90;;;14.10;99.90;;;;;;5093844;28;20479;-91
2022/12/17 18:03:50;;;;;;;1999.90;999.90;;;14.10;99.90;;;;;;5085137;28;20483;-89
2022/12/17 18:06:16;;;;;;;1999.90;999.90;;;14.10;99.90;;;;;;5085514;28;20035;-89
2022/12/17 18:08:44;;;;;;;1999.90;999.90;;;14.10;99.90;;;;;;5088654;28;20101;-90
2022/12/17 18:11:14;;;;;;;1999.90;999.90;;;14.10;99.90;;;;;;5090222;28;20040;-90
2022/12/17 18:13:55;;;;;;;1999.90;999.90;;;14.10;99.90;;;;;;5089818;28;20475;-91
2022/12/17 18:16:27;;;;;;;1999.90;999.90;;;14.10;99.90;;;;;;5107331;28;20032;-89
2022/12/17 18:19:02;;;;;;;1999.90;999.90;;;14.10;99.90;;;;;;5079161;28;20039;-90
2022/12/17 18:21:29;;;;;;;1999.90;999.90;;;14.10;99.90;;;;;;5081944;28;20506;-90
2022/12/17 18:24:01;;;;;;;1999.90;999.90;;;14.10;99.90;;;;;;5080484;28;20404;-89
2022/12/17 18:26:29;;;;;;;1999.90;999.90;;;14.10;99.90;;;;;;5091943;28;20506;-90
2022/12/17 18:28:57;;;;;;;1999.90;999.90;;;14.10;99.90;;;;;;5094644;28;20827;-90
2022/12/17 18:31:24;;;;;;;1999.90;999.90;;;14.10;99.90;;;;;;5089229;28;20028;-91
2022/12/17 18:33:55;;;;;;;1999.90;999.90;;;14.10;99.90;;;;;;5107711;28;20071;-90
2022/12/17 18:36:28;;;;;;;1999.90;999.90;;;14.10;99.90;;;;;;5110168;28;20144;-90
2022/12/17 18:39:02;;;;;;;1999.90;999.90;;;14.10;99.90;;;;;;5092484;28;20566;-90
2022/12/17 18:44:15;;;;;;;1999.90;999.90;;;14.00;99.90;;;;;;5105742;28;20398;-89
2022/12/17 18:46:41;;;;;;;1999.90;999.90;;;14.10;99.90;;;;;;5115449;28;20051;-90
2022/12/17 18:49:10;;;;;;;1999.90;999.90;;;14.10;99.90;;;;;;5090579;28;20488;-90
2022/12/17 18:51:38;;;;;;;1999.90;999.90;;;14.00;99.90;;;;;;5092849;28;20032;-89
2022/12/17 18:54:07;;;;;;;1999.90;999.90;;;14.00;99.90;;;;;;5090744;28;20512;-90
2022/12/17 18:56:34;;;;;;;1999.90;999.90;;;14.00;99.90;;;;;;5090408;28;20040;-91
2022/12/17 18:59:01;;;;;;;1999.90;999.90;;;14.10;99.90;;;;;;5092551;28;20038;-88
2022/12/17 19:01:29;;;;;;;1999.90;999.90;;;14.10;99.90;;;;;;5087545;28;20043;-89
2022/12/17 19:03:55;;;;;;;1999.90;999.90;;;14.10;99.90;;;;;;5090006;28;20066;-88
2022/12/17 19:06:22;;;;;;;1999.90;999.90;;;14.10;99.90;;;;;;5126003;27;20039;-89
2022/12/17 19:08:48;;;;;;;1999.90;999.90;;;14.00;99.90;;;;;;5090366;28;20044;-89
2022/12/17 19:11:16;;;;;;;1999.90;999.90;;;14.10;99.90;;;;;;5090834;28;20027;-90
2022/12/17 19:13:50;;;;;;;1999.90;999.90;;;14.10;99.90;;;;;;5089984;28;20043;-91
2022/12/17 19:16:22;;;;;;;1999.90;999.90;;;14.00;99.90;;;;;;5086553;28;20032;-91
2022/12/17 19:18:52;;;;;;;1999.90;999.90;;;14.10;99.90;;;;;;5089977;28;20047;-91
2022/12/17 19:21:19;;;;;;;1999.90;999.90;;;14.00;99.90;;;;;;5093054;28;20092;-91
2022/12/17 19:23:45;;;;;;;1999.90;999.90;;;14.00;99.90;;;;;;5091583;28;20044;-91
2022/12/17 19:26:19;;;;;;;1999.90;999.90;;;14.00;99.90;;;;;;5088345;28;20046;-92
2022/12/17 19:28:47;;;;;;;1999.90;999.90;;;14.00;99.90;;;;;;5085569;28;20097;-91
2022/12/17 19:31:14;;;;;;;1999.90;999.90;;;14.00;99.90;;;;;;5091881;28;20032;-91
2022/12/17 19:33:39;;;;;;;1999.90;999.90;;;14.00;99.90;;;;;;5092387;28;20039;-90
2022/12/17 19:36:07;;;;;;;1999.90;999.90;;;14.00;99.90;;;;;;5082490;28;20038;-91
2022/12/17 19:38:34;;;;;;;1999.90;999.90;;;14.00;99.90;;;;;;5089297;28;20364;-91
2022/12/17 19:41:05;;;;;;;1999.90;999.90;;;14.00;99.90;;;;;;5090475;28;20043;-91
2022/12/17 19:43:31;;;;;;;1999.90;999.90;;;14.00;99.90;;;;;;5097028;28;20101;-91
2022/12/17 19:46:05;;;;;;;1999.90;999.90;;;14.00;99.90;;;;;;5093019;28;20436;-91
2022/12/17 19:48:32;;;;;;;1999.90;999.90;;;14.00;99.90;;;;;;5093095;28;20039;-91
2022/12/17 19:50:58;;;;;;;1999.90;999.90;;;14.00;99.90;;;;;;5096411;28;20032;-90
2022/12/17 19:53:26;;;;;;;1999.90;999.90;;;14.00;99.90;;;;;;5092127;28;20614;-89
2022/12/17 19:55:55;;;;;;;1999.90;999.90;;;14.00;99.90;;;;;;5087048;28;20122;-89
2022/12/17 19:58:23;;;;;;;1999.90;999.90;;;14.00;99.90;;;;;;5089252;28;20068;-89
2022/12/17 20:00:49;;;;;;;1999.90;999.90;;;14.00;99.90;;;;;;5099039;28;20048;-90
2022/12/17 20:03:15;;;;;;;1999.90;999.90;;;14.00;99.90;;;;;;5096586;28;20049;-90
2022/12/17 20:05:45;;;;;;;1999.90;999.90;;;14.00;99.90;;;;;;5086995;28;20040;-90
2022/12/17 20:08:12;;;;;;;1999.90;999.90;;;14.00;99.90;;;;;;5085060;28;20052;-91
2022/12/17 20:10:38;;;;;;;1999.90;999.90;;;14.00;99.90;;;;;;5093239;28;20486;-90
2022/12/17 20:13:04;;;;;;;1999.90;999.90;;;14.00;99.90;;;;;;5090767;28;20036;-88
2022/12/17 20:15:30;;;;;;;1999.90;999.90;;;14.00;99.90;;;;;;5094383;28;20537;-89
2022/12/17 20:17:56;;;;;;;1999.90;999.90;;;14.00;99.90;;;;;;5090440;28;20105;-89
2022/12/17 20:20:22;;;;;;;1999.90;999.90;;;14.00;99.90;;;;;;5086054;28;20036;-88
2022/12/17 20:22:48;;;;;;;1999.90;999.90;;;14.00;99.90;;;;;;5096125;28;20118;-89
2022/12/17 20:25:14;;;;;;;1999.90;999.90;;;14.00;99.90;;;;;;5088720;28;20035;-89
2022/12/17 20:27:40;;;;;;;1999.90;999.90;;;14.00;99.90;;;;;;5091707;28;20229;-90
2022/12/17 20:30:06;;;;;;;1999.90;999.90;;;14.00;99.90;;;;;;5095129;28;20036;-89
2022/12/17 20:32:32;;;;;;;1999.90;999.90;;;14.00;99.90;;;;;;5103266;28;20042;-90
2022/12/17 20:34:58;;;;;;;1999.90;999.90;;;14.00;99.90;;;;;;5092856;28;20779;-90
2022/12/17 20:37:26;;;;;;;1999.90;999.90;;;14.00;99.90;;;;;;5089395;28;20066;-90
2022/12/17 20:39:53;;;;;;;1999.90;999.90;;;14.00;99.90;;;;;;5091426;28;20046;-90
2022/12/17 20:42:19;;;;;;;1999.90;999.90;;;14.00;99.90;;;;;;5093503;28;20089;-89
2022/12/17 20:44:45;;;;;;;1999.90;999.90;;;14.00;99.90;;;;;;5089750;28;20043;-89
2022/12/17 20:47:11;;;;;;;1999.90;999.90;;;14.00;99.90;;;;;;5088795;28;20040;-90
2022/12/17 20:49:37;;;;;;;1999.90;999.90;;;14.00;99.90;;;;;;5084914;28;20471;-89
2022/12/17 20:52:03;;;;;;;1999.90;999.90;;;14.00;99.90;;;;;;5087159;28;20040;-90
2022/12/17 20:54:29;;;;;;;1999.90;999.90;;;14.00;99.90;;;;;;5108665;28;20036;-89
2022/12/17 20:56:57;;;;;;;1999.90;999.90;;;14.00;99.90;;;;;;5094640;28;20420;-89
2022/12/17 20:59:23;;;;;;;1999.90;999.90;;;14.00;99.90;;;;;;5091338;28;20123;-90
2022/12/17 21:01:48;;;;;;;1999.90;999.90;;;14.00;99.90;;;;;;5091429;28;20047;-90
2022/12/17 21:04:15;;;;;;;1999.90;999.90;;;14.00;99.90;;;;;;5083569;28;20116;-90
2022/12/17 21:06:46;;;;;;;1999.90;999.90;;;14.00;99.90;;;;;;5093112;28;20050;-90
2022/12/17 21:09:14;;;;;;;1999.90;999.90;;;14.00;99.90;;;;;;5083685;28;20040;-90
2022/12/17 21:11:40;;;;;;;1999.90;999.90;;;14.00;99.90;;;;;;5085253;28;20039;-90
2022/12/17 21:14:12;;;;;;;1999.90;999.90;;;14.00;99.90;;;;;;5088709;28;20036;-90
2022/12/17 21:16:39;;;;;;;1999.90;999.90;;;14.00;99.90;;;;;;5084512;28;20128;-90
2022/12/17 21:19:06;;;;;;;1999.90;999.90;;;14.00;99.90;;;;;;5082690;28;20046;-89
2022/12/17 21:21:35;;;;;;;1999.90;999.90;;;14.00;99.90;;;;;;5085015;28;20070;-89
2022/12/17 21:24:01;;;;;;;1999.90;999.90;;;14.00;99.90;;;;;;5079753;28;20646;-89
2022/12/17 21:26:29;;;;;;;1999.90;999.90;;;14.00;99.90;;;;;;5088366;28;20046;-90
2022/12/17 21:28:59;;;;;;;1999.90;999.90;;;14.00;99.90;;;;;;5088728;28;20027;-90
2022/12/17 21:31:28;;;;;;;1999.90;999.90;;;14.00;99.90;;;;;;5082714;28;20039;-90
2022/12/17 21:33:56;;;;;;;1999.90;999.90;;;14.00;99.90;;;;;;5088915;28;20097;-89
2022/12/17 21:36:23;;;;;;;1999.90;999.90;;;14.00;99.90;;;;;;5103639;28;20080;-90
2022/12/17 21:38:49;;;;;;;1999.90;999.90;;;14.00;99.90;;;;;;5091776;28;20502;-88
2022/12/17 21:41:21;;;;;;;1999.90;999.90;;;14.00;99.90;;;;;;5087282;28;20069;-89
2022/12/17 21:43:50;;;;;;;1999.90;999.90;;;14.00;99.90;;;;;;5084155;28;20054;-89
2022/12/17 21:46:16;;;;;;;1999.90;999.90;;;14.00;99.90;;;;;;5083435;28;20291;-90
2022/12/17 21:48:42;;;;;;;1999.90;999.90;;;14.00;99.90;;;;;;5082985;28;20147;-89
2022/12/17 21:51:10;;;;;;;1999.90;999.90;;;14.00;99.90;;;;;;5073071;28;20035;-89
2022/12/17 21:53:40;;;;;;;1999.90;999.90;;;14.00;99.90;;;;;;5082344;28;20308;-89
2022/12/17 21:56:12;;;;;;;1999.90;999.90;;;14.00;99.90;;;;;;5084445;28;20285;-90
2022/12/17 21:58:39;;;;;;;1999.90;999.90;;;14.00;99.90;;;;;;5082744;28;20036;-89
2022/12/17 22:01:09;;;;;;;1999.90;999.90;;;14.00;99.90;;;;;;5082574;28;20054;-89
2022/12/17 22:03:35;;;;;;;1999.90;999.90;;;14.10;99.90;;;;;;5091782;28;20043;-89
2022/12/17 22:06:09;;;;;;;1999.90;999.90;;;14.00;99.90;;;;;;5079535;28;20073;-89
2022/12/17 22:08:35;;;;;;;1999.90;999.90;;;14.10;99.90;;;;;;5077973;28;20463;-89
2022/12/17 22:11:21;;;;;;;1999.90;999.90;;;14.10;99.90;;;;;;5108673;27;20865;-89
2022/12/17 22:16:55;;;;;;;1999.90;999.90;;;14.10;99.90;;;;;;5003038;28;20045;-89
2022/12/17 22:19:22;;;;;;;1999.90;999.90;;;14.10;99.90;;;;;;4993201;28;20153;-90
2022/12/17 22:21:49;;;;;;;1999.90;999.90;;;14.10;99.90;;;;;;5048661;28;20185;-89
2022/12/17 22:24:20;;;;;;;1999.90;999.90;;;14.10;99.90;;;;;;5053219;28;20106;-90
2022/12/17 22:26:47;;;;;;;1999.90;999.90;;;14.10;99.90;;;;;;5054136;28;20044;-89
2022/12/17 22:32:58;;;;;;;1999.90;999.90;;;14.10;99.90;;;;;;5054300;28;20174;-88
2022/12/17 22:34:50;;;;;;;1999.90;999.90;;;14.10;99.90;;;;;;5085584;28;20461;-89
2022/12/17 22:37:16;;;;;;;1999.90;999.90;;;14.00;99.90;;;;;;5053210;28;20377;-89
2022/12/17 22:39:41;;;;;;;1999.90;999.90;;;13.90;99.90;;;;;;5051436;28;20039;-90
2022/12/17 22:44:57;;;;;;;1999.90;999.90;;;13.80;99.90;;;;;;5077509;28;20047;-89
2022/12/17 22:47:23;;;;;;;1999.90;999.90;;;13.80;99.90;;;;;;5051219;28;20063;-89
2022/12/17 22:49:49;;;;;;;1999.90;999.90;;;13.70;99.90;;;;;;5059630;28;20039;-90
2022/12/17 22:52:14;;;;;;;1999.90;999.90;;;13.70;99.90;;;;;;5048969;28;20400;-90
2022/12/17 22:54:40;;;;;;;1999.90;999.90;;;13.70;99.90;;;;;;5053838;28;20071;-91
2022/12/17 22:57:09;;;;;;;1999.90;999.90;;;13.70;99.90;;;;;;5048978;28;20085;-90
2022/12/17 22:59:34;;;;;;;1999.90;999.90;;;13.70;99.90;;;;;;5051631;28;20043;-89
2022/12/17 23:02:00;;;;;;;1999.90;999.90;;;13.70;99.90;;;;;;5055198;28;20036;-89
2022/12/17 23:04:26;;;;;;;1999.90;999.90;;;13.70;99.90;;;;;;5057131;28;20082;-89
2022/12/17 23:06:51;;;;;;;1999.90;999.90;;;13.70;99.90;;;;;;5047748;28;20067;-89
2022/12/17 23:09:18;;;;;;;1999.90;999.90;;;13.80;99.90;;;;;;5051998;28;20165;-89
2022/12/17 23:11:45;;;;;;;1999.90;999.90;;;13.80;99.90;;;;;;5052642;28;20040;-89
2022/12/17 23:14:10;;;;;;;1999.90;999.90;;;13.80;99.90;;;;;;5062856;28;20620;-90
2022/12/17 23:16:40;;;;;;;1999.90;999.90;;;13.90;99.90;;;;;;5065392;28;20035;-90
2022/12/17 23:19:06;;;;;;;1999.90;999.90;;;13.90;99.90;;;;;;5049477;28;20446;-90
2022/12/17 23:21:32;;;;;;;1999.90;999.90;;;13.90;99.90;;;;;;5044563;28;20044;-90
2022/12/17 23:23:58;;;;;;;1999.90;999.90;;;14.00;99.90;;;;;;5038827;28;20029;-89
2022/12/17 23:26:27;;;;;;;1999.90;999.90;;;14.00;99.90;;;;;;5056936;28;20037;-90
2022/12/17 23:29:02;;;;;;;1999.90;999.90;;;14.00;99.90;;;;;;5039387;28;20392;-89
2022/12/17 23:31:33;;;;;;;1999.90;999.90;;;14.00;99.90;;;;;;5039403;28;20033;-89
2022/12/17 23:33:58;;;;;;;1999.90;999.90;;;14.00;99.90;;;;;;5038792;28;20374;-89
2022/12/17 23:36:25;;;;;;;1999.90;999.90;;;14.00;99.90;;;;;;5040516;28;20039;-89
2022/12/17 23:38:55;;;;;;;1999.90;999.90;;;14.00;99.90;;;;;;5038040;28;20037;-90
2022/12/17 23:41:24;;;;;;;1999.90;999.90;;;14.00;99.90;;;;;;5040795;28;20094;-89
2022/12/17 23:43:52;;;;;;;1999.90;999.90;;;14.00;99.90;;;;;;5037749;28;20100;-90
2022/12/17 23:46:19;;;;;;;1999.90;999.90;;;14.00;99.90;;;;;;5040124;28;20116;-89
2022/12/17 23:48:45;;;;;;;1999.90;999.90;;;14.00;99.90;;;;;;5040677;28;20025;-88
2022/12/17 23:51:13;;;;;;;1999.90;999.90;;;14.00;99.90;;;;;;5039962;28;20123;-90
2022/12/17 23:53:39;;;;;;;1999.90;999.90;;;14.00;99.90;;;;;;5040633;28;20463;-89
2022/12/17 23:56:07;;;;;;;1999.90;999.90;;;14.00;99.90;;;;;;5045855;28;20071;-90
2022/12/17 23:58:34;;;;;;;1999.90;999.90;;;14.00;99.90;;;;;;5038384;28;20543;-90
